Time;durP1;ratioP1;P1;durP2;ratioP2;P2;SDS_P1;SDS_P2;PMS_P1;PMS_P2;Temp;Humidity;BMP_temperature;BMP_pressure;BME280_temperature;BME280_humidity;BME280_pressure;Samples;Min_cycle;Max_cycle;Signal;HPM_P1;HPM_P2
2023/07/16 00:02:38;;;;;;;35.72;15.43;;;27.60;91.90;;;;;;5011417;28;20049;-76
2023/07/16 00:05:42;;;;;;;35.03;15.13;;;27.60;91.90;;;;;;5010976;28;20045;-76
2023/07/16 00:08:47;;;;;;;34.65;15.13;;;27.60;91.90;;;;;;5010748;28;20045;-76
2023/07/16 00:11:51;;;;;;;38.75;16.15;;;27.60;91.70;;;;;;5010626;28;20045;-76
2023/07/16 00:14:56;;;;;;;35.17;15.07;;;27.60;91.80;;;;;;5010464;28;20049;-76
2023/07/16 00:18:01;;;;;;;28.98;13.60;;;27.50;91.90;;;;;;5009771;28;20065;-76
2023/07/16 00:21:04;;;;;;;44.92;16.85;;;27.40;91.90;;;;;;5008736;28;20041;-76
2023/07/16 00:24:08;;;;;;;38.15;14.77;;;27.40;92.00;;;;;;5010335;28;20048;-76
2023/07/16 00:27:12;;;;;;;40.72;15.95;;;27.30;92.00;;;;;;5010411;28;20045;-76
2023/07/16 00:30:16;;;;;;;38.55;16.23;;;27.30;92.10;;;;;;5009573;28;20045;-76
2023/07/16 00:33:20;;;;;;;40.20;16.38;;;27.20;92.10;;;;;;5010233;28;20060;-76
2023/07/16 00:36:24;;;;;;;32.83;16.15;;;27.20;91.90;;;;;;5010146;28;20497;-76
2023/07/16 00:39:29;;;;;;;37.88;16.65;;;27.30;91.80;;;;;;5009806;28;20504;-77
2023/07/16 00:42:33;;;;;;;31.45;11.77;;;27.40;91.80;;;;;;5010621;28;20528;-77
2023/07/16 00:45:39;;;;;;;30.27;14.38;;;27.40;91.10;;;;;;5010658;28;20041;-77
2023/07/16 00:48:43;;;;;;;30.83;14.18;;;27.30;91.00;;;;;;5010537;28;20053;-77
2023/07/16 00:51:47;;;;;;;29.63;13.73;;;27.30;91.10;;;;;;5009543;28;20040;-77
2023/07/16 00:54:51;;;;;;;25.42;12.80;;;27.20;91.20;;;;;;5010376;28;20053;-77
2023/07/16 00:58:05;;;;;;;30.67;15.15;;;27.20;91.20;;;;;;5010255;28;20041;-75
2023/07/16 01:01:09;;;;;;;28.95;14.25;;;27.10;91.70;;;;;;4998291;28;20329;-76
2023/07/16 01:04:13;;;;;;;34.40;15.25;;;27.10;91.70;;;;;;5010310;28;20041;-75
2023/07/16 01:07:19;;;;;;;33.42;15.73;;;27.10;92.00;;;;;;5009391;28;20052;-75
2023/07/16 01:10:25;;;;;;;37.30;15.27;;;27.00;92.00;;;;;;5010262;28;20052;-75
2023/07/16 01:13:29;;;;;;;27.98;14.55;;;26.90;92.10;;;;;;5010232;28;20049;-76
2023/07/16 01:16:33;;;;;;;32.67;14.70;;;26.80;92.60;;;;;;5010119;28;20528;-76
2023/07/16 01:19:40;;;;;;;30.95;14.73;;;26.70;92.90;;;;;;5009086;28;20037;-76
2023/07/16 01:23:09;;;;;;;33.42;14.45;;;26.60;92.90;;;;;;5010013;28;20049;-76
2023/07/16 01:26:47;;;;;;;32.53;14.52;;;26.50;92.90;;;;;;5009931;28;20075;-77
2023/07/16 01:30:04;;;;;;;25.90;13.70;;;26.50;93.10;;;;;;5009951;28;20049;-77
2023/07/16 01:33:10;;;;;;;26.05;12.68;;;26.50;92.90;;;;;;5009314;28;20053;-76
2023/07/16 01:36:16;;;;;;;27.60;12.43;;;26.40;92.60;;;;;;5009524;28;20069;-76
2023/07/16 01:39:20;;;;;;;22.27;12.73;;;26.40;92.20;;;;;;5008636;28;20037;-76
2023/07/16 01:42:24;;;;;;;26.73;11.95;;;26.40;92.10;;;;;;5009343;28;20061;-76
2023/07/16 01:45:31;;;;;;;24.27;12.55;;;26.40;92.10;;;;;;5009464;28;20065;-76
2023/07/16 01:48:36;;;;;;;24.45;11.13;;;26.40;91.80;;;;;;5008632;28;20052;-76
2023/07/16 01:51:40;;;;;;;30.55;11.23;;;26.50;90.70;;;;;;5009457;28;20045;-76
2023/07/16 01:54:44;;;;;;;21.42;11.55;;;26.60;90.70;;;;;;5008455;28;20056;-76
2023/07/16 01:57:48;;;;;;;18.52;10.57;;;26.70;90.60;;;;;;5008506;28;20057;-76
2023/07/16 02:00:52;;;;;;;20.70;11.05;;;26.50;90.90;;;;;;5008348;28;20045;-76
2023/07/16 02:03:56;;;;;;;24.60;11.10;;;26.50;90.10;;;;;;5008279;28;20045;-76
2023/07/16 02:07:00;;;;;;;28.45;13.07;;;26.50;90.30;;;;;;5009163;28;20508;-76
2023/07/16 02:10:04;;;;;;;28.17;13.30;;;26.50;91.00;;;;;;5009306;28;20048;-76
2023/07/16 02:13:09;;;;;;;22.48;11.32;;;26.50;91.40;;;;;;5008939;28;20049;-76
2023/07/16 02:16:13;;;;;;;27.42;12.35;;;26.40;91.50;;;;;;5008051;28;20504;-76
2023/07/16 02:19:17;;;;;;;24.90;12.88;;;26.40;91.50;;;;;;5009154;28;20041;-76
2023/07/16 02:22:21;;;;;;;28.58;13.20;;;26.40;91.70;;;;;;5009040;28;20532;-76
2023/07/16 02:25:26;;;;;;;31.98;13.77;;;26.20;91.80;;;;;;5009018;28;20500;-76
2023/07/16 02:28:30;;;;;;;32.42;13.57;;;26.20;92.00;;;;;;5008722;28;20049;-76
2023/07/16 02:31:34;;;;;;;31.08;13.70;;;26.20;92.10;;;;;;5008928;28;20052;-76
2023/07/16 02:34:40;;;;;;;27.08;12.88;;;26.30;92.10;;;;;;5008054;28;20069;-76
2023/07/16 02:37:44;;;;;;;31.77;12.55;;;26.30;92.10;;;;;;5007810;28;20041;-76
2023/07/16 02:40:48;;;;;;;24.05;11.63;;;26.20;92.00;;;;;;5008752;28;20056;-77
2023/07/16 02:44:00;;;;;;;20.13;11.82;;;26.10;92.00;;;;;;5006846;28;20049;-77
2023/07/16 02:47:04;;;;;;;23.45;11.63;;;26.10;91.80;;;;;;5007878;28;20649;-76
2023/07/16 02:50:09;;;;;;;26.17;12.05;;;26.00;92.00;;;;;;5008758;28;20045;-77
2023/07/16 02:53:15;;;;;;;23.70;11.52;;;25.90;92.10;;;;;;5008001;28;20045;-76
2023/07/16 02:56:19;;;;;;;31.08;11.52;;;25.90;92.00;;;;;;5008391;28;20060;-76
2023/07/16 02:59:23;;;;;;;22.23;11.18;;;25.90;91.90;;;;;;5008369;28;20076;-76
2023/07/16 03:02:30;;;;;;;28.80;11.48;;;25.80;92.10;;;;;;5007638;28;20512;-76
2023/07/16 03:05:34;;;;;;;35.28;11.65;;;25.90;91.90;;;;;;5007749;28;20045;-76
2023/07/16 03:08:38;;;;;;;28.88;12.05;;;26.00;91.80;;;;;;5007766;28;20409;-77
2023/07/16 03:11:42;;;;;;;24.65;12.50;;;25.80;92.00;;;;;;5007633;28;20045;-76
2023/07/16 03:14:45;;;;;;;37.38;11.75;;;25.80;92.20;;;;;;5008380;28;20048;-77
2023/07/16 03:17:50;;;;;;;25.02;11.70;;;25.80;92.20;;;;;;5007690;28;20521;-77
2023/07/16 03:20:54;;;;;;;24.25;12.13;;;25.70;92.20;;;;;;5007667;28;20537;-76
2023/07/16 03:23:58;;;;;;;24.42;11.45;;;25.70;92.40;;;;;;5008218;28;20647;-76
2023/07/16 03:27:03;;;;;;;24.63;11.07;;;25.70;92.30;;;;;;5007440;28;20045;-76
2023/07/16 03:30:07;;;;;;;25.77;11.45;;;25.80;92.30;;;;;;4985145;28;20068;-76
2023/07/16 03:33:11;;;;;;;22.88;12.82;;;25.80;92.30;;;;;;4995976;28;20057;-76
2023/07/16 03:36:15;;;;;;;23.73;12.65;;;25.90;92.10;;;;;;5007192;28;20696;-76
2023/07/16 03:39:19;;;;;;;22.30;11.82;;;25.90;91.90;;;;;;5007474;28;20049;-77
2023/07/16 03:42:23;;;;;;;24.80;10.52;;;25.80;91.90;;;;;;5007325;28;20393;-77
2023/07/16 03:45:27;;;;;;;25.15;11.93;;;25.70;91.70;;;;;;4996047;28;20045;-76
2023/07/16 03:48:31;;;;;;;19.77;10.52;;;25.70;91.80;;;;;;5007486;28;20037;-76
2023/07/16 03:51:35;;;;;;;25.73;12.23;;;25.70;91.70;;;;;;5007097;28;20048;-77
2023/07/16 03:54:39;;;;;;;28.85;11.70;;;25.70;91.50;;;;;;5007402;28;20041;-76
2023/07/16 03:57:43;;;;;;;23.60;10.23;;;25.70;91.10;;;;;;5010373;28;20056;-77
2023/07/16 04:00:47;;;;;;;21.77;10.20;;;25.80;90.70;;;;;;5011261;28;20041;-76
2023/07/16 04:03:51;;;;;;;20.50;10.00;;;25.80;90.80;;;;;;5010387;28;20068;-77
2023/07/16 04:06:56;;;;;;;19.23;10.50;;;25.90;90.80;;;;;;5011172;28;20389;-76
2023/07/16 04:10:00;;;;;;;24.45;10.82;;;25.80;90.30;;;;;;5010944;28;20041;-76
2023/07/16 04:13:04;;;;;;;21.63;10.00;;;25.80;90.20;;;;;;5011137;28;20504;-76
2023/07/16 04:16:08;;;;;;;20.00;9.68;;;25.60;90.10;;;;;;5010839;28;20061;-76
2023/07/16 04:19:12;;;;;;;22.23;9.88;;;25.70;90.10;;;;;;5010935;28;20045;-76
2023/07/16 04:22:16;;;;;;;21.10;10.00;;;25.70;90.10;;;;;;5011001;28;20049;-76
2023/07/16 04:25:20;;;;;;;22.48;9.90;;;25.60;90.30;;;;;;5010495;28;20065;-77
2023/07/16 04:28:24;;;;;;;23.40;10.13;;;25.70;90.10;;;;;;5010811;28;20045;-76
2023/07/16 04:31:28;;;;;;;24.35;10.32;;;25.60;90.10;;;;;;5010523;28;20041;-76
2023/07/16 04:34:32;;;;;;;28.20;10.02;;;25.60;90.10;;;;;;5010801;28;20057;-76
2023/07/16 04:37:36;;;;;;;22.10;9.65;;;25.60;90.40;;;;;;5010836;28;20053;-76
2023/07/16 04:40:42;;;;;;;23.30;10.77;;;25.70;90.20;;;;;;5010640;28;20053;-76
2023/07/16 04:43:46;;;;;;;25.52;9.68;;;25.80;90.10;;;;;;5009690;28;20041;-76
2023/07/16 04:46:50;;;;;;;17.80;9.82;;;26.00;89.70;;;;;;5010417;28;20045;-77
2023/07/16 04:49:54;;;;;;;20.17;9.45;;;26.20;89.00;;;;;;5010631;28;20115;-76
2023/07/16 04:52:58;;;;;;;27.10;10.43;;;26.50;88.10;;;;;;5010140;28;20504;-77
2023/07/16 04:56:01;;;;;;;26.60;9.80;;;26.80;87.80;;;;;;5009490;28;20516;-76
2023/07/16 04:59:05;;;;;;;24.38;9.38;;;27.30;86.70;;;;;;5009136;28;20053;-76
2023/07/16 05:02:09;;;;;;;23.85;10.02;;;27.80;85.40;;;;;;5009585;28;20048;-76
2023/07/16 05:05:16;;;;;;;20.35;10.43;;;28.10;84.70;;;;;;5009802;28;20053;-75
2023/07/16 05:08:20;;;;;;;24.67;10.90;;;28.10;84.60;;;;;;5009668;28;20393;-75
2023/07/16 05:11:25;;;;;;;21.83;10.27;;;28.00;85.00;;;;;;5010250;28;20049;-76
2023/07/16 05:14:29;;;;;;;27.75;9.77;;;28.10;85.10;;;;;;5010083;28;20048;-76
2023/07/16 05:17:33;;;;;;;22.98;10.30;;;28.30;84.50;;;;;;5009924;28;20053;-76
2023/07/16 05:20:37;;;;;;;27.20;9.73;;;28.50;85.20;;;;;;5009774;28;20041;-75
2023/07/16 05:23:41;;;;;;;24.55;11.15;;;28.60;84.20;;;;;;5009752;28;20052;-75
2023/07/16 05:26:45;;;;;;;21.98;10.77;;;28.90;84.10;;;;;;5009886;28;20496;-75
2023/07/16 05:29:49;;;;;;;24.30;11.15;;;29.10;83.60;;;;;;5009994;28;20049;-76
2023/07/16 05:32:53;;;;;;;24.38;10.68;;;29.30;83.00;;;;;;5009501;28;20048;-75
2023/07/16 05:35:57;;;;;;;22.00;10.60;;;29.40;83.10;;;;;;5009688;28;20061;-75
2023/07/16 05:39:00;;;;;;;20.23;10.57;;;29.60;82.80;;;;;;5009827;28;20045;-75
2023/07/16 05:42:05;;;;;;;23.48;9.73;;;29.90;82.50;;;;;;5009776;28;20049;-75
2023/07/16 05:45:09;;;;;;;20.08;10.27;;;30.00;82.50;;;;;;5009738;28;20061;-76
2023/07/16 05:48:13;;;;;;;24.13;10.38;;;30.10;82.60;;;;;;5009586;28;20049;-76
2023/07/16 05:51:17;;;;;;;24.23;10.00;;;30.20;82.60;;;;;;5009691;28;20045;-76
2023/07/16 05:54:22;;;;;;;23.70;10.95;;;30.20;82.30;;;;;;5009769;28;20048;-75
2023/07/16 05:57:26;;;;;;;21.00;9.77;;;30.40;81.60;;;;;;5009762;28;20505;-76
2023/07/16 06:00:29;;;;;;;21.85;10.43;;;30.50;81.00;;;;;;5009397;28;20045;-75
2023/07/16 06:03:33;;;;;;;24.83;9.63;;;30.70;80.70;;;;;;5009511;28;20057;-75
2023/07/16 06:06:37;;;;;;;33.65;10.20;;;30.80;79.30;;;;;;5008219;28;20037;-75
2023/07/16 06:09:41;;;;;;;29.83;9.82;;;30.80;78.50;;;;;;5009448;28;20398;-75
2023/07/16 06:12:45;;;;;;;32.50;8.85;;;31.10;78.60;;;;;;5009309;28;20056;-75
2023/07/16 06:15:49;;;;;;;43.65;9.55;;;31.40;77.80;;;;;;5008870;28;20057;-75
2023/07/16 06:18:53;;;;;;;19.23;9.63;;;31.50;77.60;;;;;;5008042;28;20045;-76
2023/07/16 06:21:57;;;;;;;19.27;8.55;;;31.50;77.10;;;;;;5009258;28;20061;-76
2023/07/16 06:25:01;;;;;;;17.92;8.40;;;31.60;75.90;;;;;;5008214;28;20057;-76
2023/07/16 06:28:05;;;;;;;34.25;11.63;;;31.70;75.10;;;;;;5009092;28;20036;-75
2023/07/16 06:31:09;;;;;;;23.50;9.23;;;31.90;76.00;;;;;;5009014;28;20057;-76
2023/07/16 06:34:13;;;;;;;27.42;9.00;;;31.80;76.10;;;;;;5008679;28;20053;-76
2023/07/16 06:37:17;;;;;;;20.58;8.40;;;31.90;76.70;;;;;;5008555;28;20056;-76
2023/07/16 06:40:20;;;;;;;23.83;8.20;;;32.20;75.70;;;;;;5008955;28;20045;-76
2023/07/16 06:43:25;;;;;;;24.25;8.35;;;32.30;74.40;;;;;;5008602;28;20046;-76
2023/07/16 06:46:28;;;;;;;19.05;8.50;;;32.40;73.90;;;;;;5007936;28;20226;-75
2023/07/16 06:49:32;;;;;;;23.77;8.52;;;32.40;74.60;;;;;;5008551;28;20053;-76
2023/07/16 06:52:36;;;;;;;32.55;8.55;;;32.50;74.20;;;;;;5007823;28;20401;-75
2023/07/16 06:55:40;;;;;;;24.55;8.80;;;32.70;74.20;;;;;;5008487;28;20064;-75
2023/07/16 06:58:44;;;;;;;16.63;7.85;;;32.90;73.80;;;;;;5008387;28;20049;-76
2023/07/16 07:01:47;;;;;;;19.40;7.78;;;33.10;73.10;;;;;;5008501;28;20051;-76
2023/07/16 07:04:52;;;;;;;26.25;7.97;;;33.60;73.30;;;;;;5008447;28;20041;-76
2023/07/16 07:07:55;;;;;;;18.63;7.80;;;34.10;72.10;;;;;;5008565;28;20045;-76
2023/07/16 07:10:59;;;;;;;24.02;7.80;;;34.30;70.70;;;;;;5008216;28;20044;-76
2023/07/16 07:14:03;;;;;;;26.23;8.13;;;34.30;71.30;;;;;;5008390;28;20041;-75
2023/07/16 07:17:07;;;;;;;20.08;8.45;;;34.60;72.10;;;;;;5007814;28;20057;-75
2023/07/16 07:20:12;;;;;;;22.05;9.32;;;34.70;71.90;;;;;;5008097;28;20045;-75
2023/07/16 07:23:16;;;;;;;23.13;9.35;;;34.80;71.80;;;;;;5008296;28;20389;-75
2023/07/16 07:26:20;;;;;;;31.83;9.90;;;34.90;71.80;;;;;;5007108;28;20045;-76
2023/07/16 07:29:24;;;;;;;23.83;10.43;;;34.90;72.10;;;;;;5008190;28;20052;-76
2023/07/16 07:32:29;;;;;;;33.72;10.93;;;34.80;72.80;;;;;;5011391;28;20049;-75
2023/07/16 07:35:33;;;;;;;35.38;12.00;;;34.70;73.10;;;;;;5011503;28;20432;-76
2023/07/16 07:38:37;;;;;;;38.05;10.27;;;34.80;72.70;;;;;;5011331;28;20389;-75
2023/07/16 07:41:41;;;;;;;35.22;14.07;;;35.10;71.90;;;;;;5011440;28;20053;-75
2023/07/16 07:44:45;;;;;;;24.33;10.45;;;35.40;71.10;;;;;;5011048;28;20061;-76
2023/07/16 07:47:49;;;;;;;19.27;9.48;;;35.40;70.80;;;;;;5011405;28;20155;-76
2023/07/16 07:50:54;;;;;;;25.92;8.07;;;35.30;70.80;;;;;;5010989;28;20060;-76
2023/07/16 07:53:58;;;;;;;27.90;9.40;;;35.40;70.20;;;;;;5011061;28;20045;-76
2023/07/16 07:57:03;;;;;;;31.42;9.65;;;35.70;70.00;;;;;;5010807;28;20056;-76
2023/07/16 08:00:11;;;;;;;19.20;9.25;;;35.70;70.30;;;;;;5010962;28;20041;-76
2023/07/16 08:03:19;;;;;;;30.85;9.55;;;35.80;70.50;;;;;;5011092;28;20045;-76
2023/07/16 08:06:23;;;;;;;21.33;10.32;;;35.90;70.00;;;;;;5011104;28;20053;-76
2023/07/16 08:09:27;;;;;;;24.85;9.63;;;35.90;69.70;;;;;;5010770;28;20393;-76
2023/07/16 08:12:32;;;;;;;27.65;9.73;;;35.90;69.70;;;;;;5010901;28;20057;-75
2023/07/16 08:15:35;;;;;;;24.85;9.25;;;36.10;69.70;;;;;;5010641;28;20045;-76
2023/07/16 08:18:39;;;;;;;23.50;9.13;;;36.40;69.40;;;;;;5010989;28;20056;-76
2023/07/16 08:21:44;;;;;;;27.92;8.73;;;36.50;69.30;;;;;;5010672;28;20041;-76
2023/07/16 08:24:48;;;;;;;26.52;7.97;;;36.60;68.60;;;;;;5010944;28;20040;-76
2023/07/16 08:27:51;;;;;;;29.10;10.05;;;36.80;67.70;;;;;;5010912;28;20049;-75
2023/07/16 08:30:55;;;;;;;30.35;8.45;;;36.80;67.10;;;;;;5010815;28;20508;-77
2023/07/16 08:33:59;;;;;;;22.92;8.68;;;36.60;68.00;;;;;;5010313;28;20516;-75
2023/07/16 08:37:03;;;;;;;24.30;8.15;;;36.30;67.10;;;;;;5010428;28;20045;-76
2023/07/16 08:40:09;;;;;;;22.27;8.60;;;36.20;67.80;;;;;;5010586;28;20044;-76
2023/07/16 08:43:16;;;;;;;16.70;7.70;;;36.40;67.90;;;;;;5009107;28;20060;-75
2023/07/16 08:46:19;;;;;;;23.58;7.20;;;36.60;66.70;;;;;;5010413;28;20041;-75
2023/07/16 08:49:28;;;;;;;25.33;8.18;;;36.30;65.70;;;;;;5009275;28;20049;-75
2023/07/16 08:52:32;;;;;;;23.05;8.88;;;36.40;66.90;;;;;;5010163;28;20048;-75
2023/07/16 08:55:38;;;;;;;22.30;8.27;;;36.40;67.10;;;;;;5010073;28;20366;-75
2023/07/16 08:58:44;;;;;;;25.50;10.15;;;36.50;66.80;;;;;;5010453;28;20653;-75
2023/07/16 09:01:51;;;;;;;23.23;7.43;;;36.60;64.80;;;;;;5010313;28;20479;-75
2023/07/16 09:04:55;;;;;;;17.58;6.82;;;36.60;65.00;;;;;;5010333;28;20049;-75
2023/07/16 09:07:59;;;;;;;23.33;6.95;;;36.70;64.40;;;;;;5010254;28;20049;-76
2023/07/16 09:11:04;;;;;;;15.55;6.28;;;36.60;64.00;;;;;;5009432;28;20049;-75
2023/07/16 09:14:08;;;;;;;14.38;6.60;;;36.60;64.60;;;;;;5010234;28;20048;-76
2023/07/16 09:17:12;;;;;;;19.92;7.00;;;36.70;64.20;;;;;;5009842;28;20057;-76
2023/07/16 09:20:17;;;;;;;20.00;6.72;;;36.80;65.50;;;;;;5010144;28;20040;-76
2023/07/16 09:23:24;;;;;;;23.75;7.68;;;36.90;65.10;;;;;;5009189;28;20049;-76
2023/07/16 09:26:28;;;;;;;18.95;7.80;;;37.00;66.10;;;;;;5009784;28;20358;-76
2023/07/16 09:29:32;;;;;;;18.33;7.30;;;37.10;66.00;;;;;;5009845;28;20041;-76
2023/07/16 09:32:39;;;;;;;18.10;7.75;;;37.20;66.40;;;;;;5009605;28;20061;-76
2023/07/16 09:35:43;;;;;;;22.85;7.97;;;37.10;66.30;;;;;;5008834;28;20497;-75
2023/07/16 09:38:47;;;;;;;17.05;7.43;;;37.20;67.20;;;;;;5009724;28;20049;-75
2023/07/16 09:41:51;;;;;;;14.18;7.43;;;37.20;66.60;;;;;;5009667;28;20510;-75
2023/07/16 09:44:57;;;;;;;18.77;7.45;;;37.20;66.20;;;;;;5009582;28;20053;-75
2023/07/16 09:48:01;;;;;;;19.98;6.97;;;37.30;66.60;;;;;;5009419;28;20053;-75
2023/07/16 09:51:07;;;;;;;16.95;7.20;;;37.30;66.00;;;;;;5009599;28;20040;-75
2023/07/16 09:54:17;;;;;;;13.52;6.28;;;37.30;64.90;;;;;;5009100;28;20049;-76
2023/07/16 09:57:25;;;;;;;17.50;6.38;;;37.40;65.20;;;;;;5009365;28;20056;-75
2023/07/16 10:00:29;;;;;;;16.10;6.18;;;37.40;64.60;;;;;;5010532;28;20045;-75
2023/07/16 10:03:33;;;;;;;12.30;5.88;;;37.40;63.40;;;;;;5006792;28;20065;-75
2023/07/16 10:06:52;;;;;;;15.90;5.78;;;37.30;60.80;;;;;;5007378;28;20045;-75
2023/07/16 10:09:57;;;;;;;13.57;5.60;;;37.30;59.70;;;;;;5009328;28;20049;-75
2023/07/16 10:13:03;;;;;;;16.05;6.75;;;37.20;62.80;;;;;;5009241;28;20048;-75
2023/07/16 10:16:10;;;;;;;12.38;5.82;;;37.30;62.30;;;;;;5008491;28;20046;-74
2023/07/16 10:19:23;;;;;;;12.57;6.03;;;37.30;62.40;;;;;;5009060;28;20053;-74
2023/07/16 10:22:38;;;;;;;12.82;5.70;;;37.30;62.10;;;;;;5009379;28;20041;-75
2023/07/16 10:26:05;;;;;;;13.57;6.88;;;37.30;60.10;;;;;;5009360;28;20057;-76
2023/07/16 10:29:10;;;;;;;16.38;6.07;;;37.30;61.90;;;;;;5009007;28;20053;-76
2023/07/16 10:32:13;;;;;;;12.73;5.93;;;37.10;62.50;;;;;;5008965;28;21908;-75
2023/07/16 10:35:17;;;;;;;13.07;6.07;;;37.10;63.30;;;;;;5008898;28;20041;-74
2023/07/16 10:38:21;;;;;;;17.15;7.05;;;37.20;63.90;;;;;;5008884;28;20057;-75
2023/07/16 10:41:25;;;;;;;13.38;7.22;;;37.20;63.60;;;;;;4996775;28;20057;-74
2023/07/16 10:44:30;;;;;;;18.77;6.80;;;37.10;63.20;;;;;;5008762;28;20049;-74
2023/07/16 10:47:35;;;;;;;15.52;6.68;;;37.10;63.30;;;;;;5008033;28;20057;-74
2023/07/16 10:50:39;;;;;;;17.65;7.00;;;37.10;63.10;;;;;;5007741;28;20049;-75
2023/07/16 10:53:43;;;;;;;9.85;5.78;;;37.10;63.20;;;;;;5008802;28;20504;-74
2023/07/16 10:56:48;;;;;;;14.07;6.22;;;37.10;63.00;;;;;;5008660;28;20664;-75
2023/07/16 10:59:53;;;;;;;15.25;6.38;;;37.00;61.90;;;;;;5007903;28;20049;-75
2023/07/16 11:02:57;;;;;;;8.55;5.55;;;37.00;61.00;;;;;;5008348;28;20504;-75
2023/07/16 11:06:09;;;;;;;13.80;6.45;;;37.00;61.50;;;;;;5010853;28;20057;-75
2023/07/16 11:09:12;;;;;;;12.95;6.28;;;36.90;61.10;;;;;;5011912;28;20401;-75
2023/07/16 11:12:20;;;;;;;17.95;6.13;;;36.80;61.40;;;;;;5011773;28;20413;-76
2023/07/16 11:15:34;;;;;;;11.85;5.75;;;36.80;60.50;;;;;;5010863;28;20428;-75
2023/07/16 11:18:39;;;;;;;11.13;5.50;;;36.60;60.70;;;;;;5011670;28;20057;-75
2023/07/16 11:21:42;;;;;;;11.00;5.38;;;36.60;61.30;;;;;;5011051;28;20044;-75
2023/07/16 11:24:49;;;;;;;15.73;5.88;;;36.70;62.00;;;;;;5011714;28;20397;-75
2023/07/16 11:27:57;;;;;;;13.13;6.22;;;36.70;62.30;;;;;;5011480;28;20385;-76
2023/07/16 11:31:11;;;;;;;15.43;5.40;;;36.70;59.80;;;;;;5011755;28;20044;-76
2023/07/16 11:34:14;;;;;;;16.65;6.07;;;36.70;60.40;;;;;;5011112;28;20049;-76
2023/07/16 11:37:20;;;;;;;12.65;6.07;;;36.60;60.00;;;;;;5011316;28;20057;-76
2023/07/16 11:40:24;;;;;;;15.25;5.30;;;36.60;60.70;;;;;;5011509;28;20036;-76
2023/07/16 11:43:29;;;;;;;14.25;5.75;;;36.50;59.90;;;;;;5011538;28;20060;-76
2023/07/16 11:46:33;;;;;;;12.55;5.53;;;36.50;60.90;;;;;;5011293;28;20049;-76
2023/07/16 11:49:37;;;;;;;9.63;5.13;;;36.60;59.90;;;;;;5010934;28;20516;-76
2023/07/16 11:52:42;;;;;;;10.45;5.18;;;36.60;59.60;;;;;;5010708;28;20052;-75
2023/07/16 11:55:45;;;;;;;11.90;4.97;;;36.60;59.50;;;;;;5011363;28;20045;-76
2023/07/16 11:58:50;;;;;;;11.82;6.00;;;36.60;59.10;;;;;;5011434;28;20064;-75
2023/07/16 12:01:55;;;;;;;18.40;9.75;;;36.60;58.50;;;;;;5011379;28;20045;-75
2023/07/16 12:04:58;;;;;;;19.05;9.05;;;36.70;61.50;;;;;;5011221;28;20045;-75
2023/07/16 12:08:03;;;;;;;16.80;9.82;;;36.70;66.50;;;;;;5010673;28;20049;-74
2023/07/16 12:11:07;;;;;;;22.17;9.15;;;36.70;67.70;;;;;;5011194;28;20049;-74
2023/07/16 12:14:12;;;;;;;19.13;7.90;;;36.80;68.20;;;;;;5010844;28;20044;-74
2023/07/16 12:17:16;;;;;;;17.48;7.75;;;36.80;67.50;;;;;;5010046;28;20053;-74
2023/07/16 12:20:20;;;;;;;16.13;7.50;;;36.70;67.20;;;;;;5011086;28;20680;-76
2023/07/16 12:23:24;;;;;;;28.55;8.57;;;36.70;68.50;;;;;;5010994;28;20653;-75
2023/07/16 12:26:28;;;;;;;18.85;8.20;;;36.70;69.10;;;;;;5011059;28;20049;-75
2023/07/16 12:29:32;;;;;;;18.73;7.05;;;36.60;66.80;;;;;;5010113;28;20602;-75
2023/07/16 12:32:37;;;;;;;23.95;8.25;;;36.60;65.70;;;;;;5010523;28;20052;-74
2023/07/16 12:35:40;;;;;;;19.58;8.07;;;36.60;66.60;;;;;;5010514;28;20040;-75
2023/07/16 12:38:44;;;;;;;16.85;7.97;;;36.60;66.80;;;;;;5010721;28;20045;-74
2023/07/16 12:41:49;;;;;;;16.83;7.40;;;36.60;65.20;;;;;;5010403;28;20052;-76
2023/07/16 12:44:53;;;;;;;14.20;7.13;;;36.60;65.00;;;;;;5010577;28;20045;-75
2023/07/16 12:47:57;;;;;;;21.45;8.23;;;36.60;64.90;;;;;;5010382;28;20045;-74
2023/07/16 12:51:01;;;;;;;13.10;7.82;;;36.50;64.40;;;;;;5010606;28;20045;-74
2023/07/16 12:54:05;;;;;;;20.02;7.38;;;36.60;63.40;;;;;;5010227;28;20045;-74
2023/07/16 12:57:09;;;;;;;17.30;7.95;;;36.60;64.00;;;;;;5010175;28;20053;-74
2023/07/16 13:00:13;;;;;;;15.95;7.32;;;36.60;64.30;;;;;;5010362;28;20049;-75
2023/07/16 13:03:17;;;;;;;15.35;7.13;;;36.70;65.30;;;;;;5010222;28;20104;-74
2023/07/16 13:06:21;;;;;;;11.13;6.90;;;36.60;65.40;;;;;;5010222;28;20533;-76
2023/07/16 13:09:25;;;;;;;17.80;7.60;;;36.60;65.50;;;;;;5010292;28;20037;-75
2023/07/16 13:12:29;;;;;;;22.05;7.65;;;36.70;65.60;;;;;;5010067;28;20521;-75
2023/07/16 13:15:33;;;;;;;20.42;8.07;;;36.70;66.50;;;;;;5009329;28;20072;-75
2023/07/16 13:18:37;;;;;;;11.25;7.88;;;36.70;67.30;;;;;;5010130;28;20064;-75
2023/07/16 13:21:40;;;;;;;19.25;8.73;;;36.60;67.60;;;;;;5009966;28;20045;-75
2023/07/16 13:24:45;;;;;;;12.93;7.50;;;36.70;68.40;;;;;;5009872;28;20045;-75
2023/07/16 13:27:48;;;;;;;17.55;8.00;;;36.60;68.10;;;;;;5009305;28;20045;-75
2023/07/16 13:30:53;;;;;;;17.35;8.65;;;36.60;68.00;;;;;;5009837;28;20048;-75
2023/07/16 13:33:58;;;;;;;14.77;8.70;;;36.60;68.40;;;;;;5009336;28;20065;-75
2023/07/16 13:37:02;;;;;;;18.88;9.50;;;36.60;68.80;;;;;;5009597;28;20369;-75
2023/07/16 13:40:06;;;;;;;20.15;9.52;;;36.60;69.00;;;;;;5009920;28;20049;-76
2023/07/16 13:43:10;;;;;;;25.88;9.60;;;36.50;69.40;;;;;;5009390;28;20042;-75
2023/07/16 13:46:14;;;;;;;20.23;9.23;;;36.50;69.60;;;;;;5009554;28;20049;-75
2023/07/16 13:49:18;;;;;;;16.95;8.90;;;36.50;69.70;;;;;;5008673;28;20064;-75
2023/07/16 13:52:22;;;;;;;18.77;9.52;;;36.50;69.80;;;;;;5009252;28;20045;-75
2023/07/16 13:55:26;;;;;;;30.17;10.50;;;36.50;69.90;;;;;;5009528;28;20409;-75
2023/07/16 13:58:30;;;;;;;16.15;9.07;;;36.40;70.00;;;;;;5009342;28;20053;-74
2023/07/16 14:01:38;;;;;;;16.98;9.27;;;36.40;69.90;;;;;;5009364;28;20512;-76
2023/07/16 14:04:42;;;;;;;17.48;9.25;;;36.40;69.90;;;;;;5009295;28;20049;-75
2023/07/16 14:07:46;;;;;;;18.63;10.10;;;36.40;70.00;;;;;;5009026;28;20041;-75
2023/07/16 14:10:51;;;;;;;20.33;9.88;;;36.30;69.80;;;;;;5009373;28;20049;-74
2023/07/16 14:13:55;;;;;;;18.38;9.52;;;36.40;70.00;;;;;;5008946;28;20045;-74
2023/07/16 14:16:58;;;;;;;15.77;8.30;;;36.40;68.70;;;;;;5009184;28;20401;-75
2023/07/16 14:20:03;;;;;;;15.27;8.48;;;36.30;68.30;;;;;;5009503;28;20044;-74
2023/07/16 14:23:07;;;;;;;15.95;8.07;;;36.30;68.70;;;;;;5009073;28;20045;-75
2023/07/16 14:26:12;;;;;;;14.57;8.02;;;36.20;68.70;;;;;;5009038;28;20045;-74
2023/07/16 14:29:15;;;;;;;14.48;7.75;;;36.30;68.60;;;;;;5007228;28;20041;-74
2023/07/16 14:32:19;;;;;;;21.02;7.72;;;36.20;68.30;;;;;;5008885;28;20060;-73
2023/07/16 14:35:23;;;;;;;18.33;8.48;;;36.40;67.90;;;;;;5008980;28;20052;-74
2023/07/16 14:38:27;;;;;;;20.42;8.32;;;37.70;66.70;;;;;;5008612;28;20057;-74
2023/07/16 14:41:31;;;;;;;18.85;7.95;;;38.80;65.00;;;;;;5008297;28;20041;-74
2023/07/16 14:44:35;;;;;;;17.63;7.00;;;39.40;63.60;;;;;;5008056;28;20057;-75
2023/07/16 14:47:39;;;;;;;23.48;7.10;;;39.50;63.10;;;;;;5008806;28;20045;-74
2023/07/16 14:50:43;;;;;;;24.13;7.68;;;39.50;62.70;;;;;;5008646;28;20091;-75
2023/07/16 14:53:47;;;;;;;23.73;7.72;;;39.50;63.40;;;;;;5008452;28;20225;-76
2023/07/16 14:56:52;;;;;;;20.70;7.53;;;39.50;63.20;;;;;;5008638;28;20069;-74
2023/07/16 14:59:56;;;;;;;20.00;7.78;;;39.80;63.00;;;;;;5008498;28;20504;-77
2023/07/16 15:03:00;;;;;;;20.15;7.63;;;39.60;63.60;;;;;;5008699;28;20053;-77
2023/07/16 15:06:04;;;;;;;21.30;7.50;;;39.70;63.80;;;;;;5008836;28;20049;-79
2023/07/16 15:09:08;;;;;;;18.33;6.90;;;39.90;63.40;;;;;;5008901;28;20048;-79
2023/07/16 15:12:12;;;;;;;16.42;7.03;;;39.90;63.30;;;;;;5008911;28;20504;-79
2023/07/16 15:15:17;;;;;;;15.25;6.93;;;39.90;63.00;;;;;;5008237;28;20049;-77
2023/07/16 15:18:21;;;;;;;21.67;7.32;;;40.10;62.70;;;;;;5008292;28;20053;-77
2023/07/16 15:21:25;;;;;;;15.35;6.60;;;40.00;62.90;;;;;;5008568;28;20048;-74
2023/07/16 15:24:30;;;;;;;15.55;6.35;;;39.90;63.60;;;;;;5008360;28;20516;-76
2023/07/16 15:27:34;;;;;;;16.50;6.40;;;40.00;63.20;;;;;;5008384;28;20057;-76
2023/07/16 15:30:38;;;;;;;24.38;7.15;;;39.80;63.30;;;;;;5008450;28;20042;-76
2023/07/16 15:33:42;;;;;;;21.83;6.28;;;40.00;63.70;;;;;;4995877;28;20056;-77
2023/07/16 15:36:46;;;;;;;15.82;6.88;;;39.70;63.70;;;;;;5007404;28;20378;-77
2023/07/16 15:39:50;;;;;;;25.02;7.20;;;39.80;64.10;;;;;;5007003;28;20041;-77
2023/07/16 15:42:54;;;;;;;19.13;7.25;;;39.90;64.20;;;;;;5008224;28;20048;-76
2023/07/16 15:45:57;;;;;;;20.52;7.80;;;39.80;65.20;;;;;;5008144;28;20504;-77